createdAt,value
2018-08-16T00:01:33.935Z,99.90
2018-08-16T00:04:02.370Z,99.90
2018-08-16T00:06:30.852Z,99.90
2018-08-16T00:08:59.265Z,99.90
2018-08-16T00:11:27.649Z,99.90
2018-08-16T00:13:56.096Z,99.90
2018-08-16T00:16:24.493Z,99.90
2018-08-16T00:18:52.959Z,99.90
2018-08-16T00:21:21.342Z,99.90
2018-08-16T00:23:49.688Z,99.90
2018-08-16T00:26:18.115Z,99.90
2018-08-16T00:28:46.463Z,99.90
2018-08-16T00:31:14.851Z,99.90
2018-08-16T00:33:43.350Z,99.90
2018-08-16T00:36:11.687Z,99.90
2018-08-16T00:38:40.127Z,99.90
2018-08-16T00:41:08.581Z,99.90
2018-08-16T00:43:37.026Z,99.90
2018-08-16T00:46:07.149Z,99.90
2018-08-16T00:48:35.747Z,99.90
2018-08-16T00:51:04.144Z,99.90
2018-08-16T00:53:32.534Z,99.90
2018-08-16T00:56:00.935Z,99.90
2018-08-16T00:58:29.348Z,99.90
2018-08-16T01:00:57.746Z,99.90
2018-08-16T01:03:26.175Z,99.90
2018-08-16T01:05:54.556Z,99.90
2018-08-16T01:08:22.955Z,99.90
2018-08-16T01:10:51.342Z,99.90
2018-08-16T01:13:19.735Z,99.90
2018-08-16T01:15:48.154Z,99.90
2018-08-16T01:18:16.526Z,99.90
2018-08-16T01:20:44.981Z,99.90
2018-08-16T01:23:13.366Z,99.90
2018-08-16T01:25:41.746Z,99.90
2018-08-16T01:28:10.215Z,99.90
2018-08-16T01:30:38.697Z,99.90
2018-08-16T01:33:07.108Z,99.90
2018-08-16T01:35:35.612Z,99.90
2018-08-16T01:38:03.935Z,99.90
2018-08-16T01:40:32.376Z,99.90
2018-08-16T01:43:00.777Z,99.90
2018-08-16T01:45:29.180Z,99.90
2018-08-16T01:47:57.543Z,99.90
2018-08-16T01:50:25.953Z,99.90
2018-08-16T01:52:54.370Z,99.90
2018-08-16T01:55:22.786Z,99.90
2018-08-16T01:57:51.132Z,99.90
2018-08-16T02:00:19.588Z,99.90
2018-08-16T02:02:47.973Z,99.90
2018-08-16T02:05:16.387Z,99.90
2018-08-16T02:07:44.739Z,99.90
2018-08-16T02:10:13.082Z,99.90
2018-08-16T02:12:41.501Z,99.90
2018-08-16T02:15:11.656Z,99.90
2018-08-16T02:17:40.114Z,99.90
2018-08-16T02:20:10.516Z,99.90
2018-08-16T02:22:39.393Z,99.90
2018-08-16T02:25:07.829Z,99.90
2018-08-16T02:27:36.230Z,99.90
2018-08-16T02:30:05.743Z,99.90
2018-08-16T02:32:34.097Z,99.90
2018-08-16T02:35:02.439Z,99.90
2018-08-16T02:37:30.904Z,99.90
2018-08-16T02:39:59.281Z,99.90
2018-08-16T02:42:27.676Z,99.90
2018-08-16T02:44:56.101Z,99.90
2018-08-16T02:47:24.524Z,99.90
2018-08-16T02:49:57.105Z,99.90
2018-08-16T02:52:26.219Z,99.90
2018-08-16T02:54:54.651Z,99.90
2018-08-16T02:57:23.012Z,99.90
2018-08-16T02:59:51.468Z,99.90
2018-08-16T03:02:19.905Z,99.90
2018-08-16T03:04:48.293Z,99.90
2018-08-16T03:07:16.661Z,99.90
2018-08-16T03:09:45.653Z,99.90
2018-08-16T03:12:14.075Z,99.90
2018-08-16T03:14:42.682Z,99.90
2018-08-16T03:17:11.167Z,99.90
2018-08-16T03:19:39.646Z,99.90
2018-08-16T03:22:08.085Z,99.90
2018-08-16T03:24:36.508Z,99.90
2018-08-16T03:27:04.906Z,99.90
2018-08-16T03:29:33.265Z,99.90
2018-08-16T03:32:01.646Z,99.90
2018-08-16T03:34:30.034Z,99.90
2018-08-16T03:36:58.425Z,99.90
2018-08-16T03:39:26.784Z,99.90
2018-08-16T03:41:55.283Z,99.90
2018-08-16T03:44:23.653Z,99.90
2018-08-16T03:46:52.016Z,99.90
2018-08-16T03:49:20.390Z,99.90
2018-08-16T03:51:48.818Z,99.90
2018-08-16T03:54:17.192Z,99.90
2018-08-16T03:56:45.642Z,99.90
2018-08-16T03:59:14.000Z,99.90
2018-08-16T04:01:42.389Z,99.90
2018-08-16T04:04:10.714Z,99.90
2018-08-16T04:06:39.159Z,99.90
2018-08-16T04:09:14.083Z,99.90
2018-08-16T04:11:42.455Z,99.90
2018-08-16T04:14:10.805Z,99.90
2018-08-16T04:16:39.252Z,99.90
2018-08-16T04:19:07.656Z,99.90
2018-08-16T04:21:36.116Z,99.90
2018-08-16T04:24:04.548Z,99.90
2018-08-16T04:26:32.908Z,99.90
2018-08-16T04:29:01.270Z,99.90
2018-08-16T04:31:29.702Z,99.90
2018-08-16T04:33:58.286Z,99.90
2018-08-16T04:36:26.665Z,99.90
2018-08-16T04:38:55.034Z,99.90
2018-08-16T04:41:23.647Z,99.90
2018-08-16T04:43:51.959Z,99.90
2018-08-16T04:46:20.338Z,99.90
2018-08-16T04:48:48.685Z,99.90
2018-08-16T04:51:17.033Z,99.90
2018-08-16T04:53:45.391Z,99.90
2018-08-16T04:56:13.769Z,99.90
2018-08-16T04:58:42.179Z,99.90
2018-08-16T05:01:10.584Z,99.90
2018-08-16T05:03:38.926Z,99.90
2018-08-16T05:06:07.357Z,99.90
2018-08-16T05:08:35.814Z,99.90
2018-08-16T05:11:04.217Z,99.90
2018-08-16T05:13:32.578Z,99.90
2018-08-16T05:16:01.028Z,99.90
2018-08-16T05:18:29.889Z,99.90
2018-08-16T05:20:58.250Z,99.90
2018-08-16T05:23:26.576Z,99.90
2018-08-16T05:25:55.037Z,99.90
2018-08-16T05:28:23.462Z,99.90
2018-08-16T05:30:51.943Z,99.90
2018-08-16T05:33:20.363Z,99.90
2018-08-16T05:35:52.922Z,99.90
2018-08-16T05:38:21.422Z,99.90
2018-08-16T05:40:49.813Z,99.90
2018-08-16T05:43:18.389Z,99.90
2018-08-16T05:45:47.082Z,99.90
2018-08-16T05:48:15.497Z,99.90
2018-08-16T05:50:44.162Z,99.90
2018-08-16T05:53:12.733Z,99.90
2018-08-16T05:55:41.058Z,99.90
2018-08-16T05:58:09.444Z,99.90
2018-08-16T06:00:41.953Z,99.90
2018-08-16T06:03:10.622Z,99.90
2018-08-16T06:05:39.142Z,99.90
2018-08-16T06:08:07.655Z,99.90
2018-08-16T06:10:36.091Z,99.90
2018-08-16T06:13:04.518Z,99.90
2018-08-16T06:15:33.237Z,99.90
2018-08-16T06:18:01.581Z,99.90
2018-08-16T06:20:30.199Z,99.90
2018-08-16T06:22:58.704Z,99.90
2018-08-16T06:25:27.351Z,99.90
2018-08-16T06:27:55.830Z,99.80
2018-08-16T06:30:24.327Z,99.70
2018-08-16T06:32:52.839Z,99.30
2018-08-16T06:35:21.341Z,99.40
2018-08-16T06:37:49.824Z,99.20
2018-08-16T06:40:18.256Z,98.50
2018-08-16T06:42:47.705Z,98.60
2018-08-16T06:45:16.213Z,97.50
2018-08-16T06:47:44.710Z,95.40
2018-08-16T06:50:13.127Z,94.50
2018-08-16T06:52:41.763Z,94.20
2018-08-16T06:55:10.733Z,93.60
2018-08-16T06:57:39.211Z,94.30
2018-08-16T07:00:08.215Z,93.60
2018-08-16T07:02:36.891Z,94.80
2018-08-16T07:05:06.091Z,95.00
2018-08-16T07:07:34.515Z,94.60
2018-08-16T07:10:02.960Z,92.70
2018-08-16T07:12:31.441Z,91.70
2018-08-16T07:14:59.832Z,91.80
2018-08-16T07:17:28.522Z,90.60
2018-08-16T07:19:56.948Z,89.80
2018-08-16T07:22:25.342Z,88.80
2018-08-16T07:24:53.775Z,90.10
2018-08-16T07:27:22.115Z,86.50
2018-08-16T07:29:50.648Z,86.40
2018-08-16T07:32:18.969Z,84.70
2018-08-16T07:34:47.391Z,80.30
2018-08-16T07:37:15.868Z,77.00
2018-08-16T07:39:44.301Z,75.00
2018-08-16T07:42:12.815Z,74.40
2018-08-16T07:44:41.206Z,74.90
2018-08-16T07:47:09.573Z,72.40
2018-08-16T07:49:39.037Z,72.60
2018-08-16T07:52:07.418Z,71.80
2018-08-16T07:54:35.758Z,70.00
2018-08-16T07:57:04.260Z,68.30
2018-08-16T07:59:32.569Z,64.70
2018-08-16T08:02:00.980Z,62.80
2018-08-16T08:04:29.370Z,60.70
2018-08-16T08:06:57.796Z,59.60
2018-08-16T08:09:26.417Z,59.10
2018-08-16T08:11:54.602Z,59.50
2018-08-16T08:14:23.007Z,61.70
2018-08-16T08:16:51.422Z,63.50
2018-08-16T08:19:19.918Z,64.40
2018-08-16T08:21:48.320Z,63.20
2018-08-16T08:24:16.700Z,64.00
2018-08-16T08:26:45.114Z,62.60
2018-08-16T08:29:13.490Z,61.80
2018-08-16T08:31:42.149Z,60.10
2018-08-16T08:34:10.574Z,62.20
2018-08-16T08:36:50.262Z,62.40
2018-08-16T08:39:18.623Z,60.20
2018-08-16T08:41:47.006Z,59.50
2018-08-16T08:44:18.667Z,57.20
2018-08-16T08:46:48.531Z,58.80
2018-08-16T08:49:17.121Z,58.00
2018-08-16T08:51:45.626Z,58.00
2018-08-16T08:54:35.019Z,57.00
2018-08-16T08:57:14.667Z,54.30
2018-08-16T08:59:43.141Z,52.30
2018-08-16T09:02:12.034Z,50.90
2018-08-16T09:04:41.079Z,50.30
2018-08-16T09:07:11.643Z,50.10
2018-08-16T09:09:53.949Z,51.40
2018-08-16T09:12:33.617Z,50.90
2018-08-16T09:15:13.229Z,49.70
2018-08-16T09:17:41.644Z,49.90
2018-08-16T09:20:10.062Z,51.40
2018-08-16T09:22:38.513Z,53.80
2018-08-16T09:25:06.895Z,53.50
2018-08-16T09:27:35.225Z,52.40
2018-08-16T09:30:16.906Z,51.60
2018-08-16T09:32:56.882Z,50.90
2018-08-16T09:35:26.122Z,50.50
2018-08-16T09:37:54.509Z,52.10
2018-08-16T09:40:22.960Z,50.10
2018-08-16T09:42:51.434Z,48.90
2018-08-16T09:45:31.260Z,50.20
2018-08-16T09:48:10.808Z,50.40
2018-08-16T09:50:39.279Z,49.90
2018-08-16T09:53:07.679Z,49.10
2018-08-16T09:55:36.268Z,49.00
2018-08-16T09:58:04.751Z,49.50
2018-08-16T10:00:38.465Z,49.70
2018-08-16T10:03:06.848Z,50.10
2018-08-16T10:05:35.272Z,51.00
2018-08-16T10:08:03.869Z,51.30
2018-08-16T10:10:32.329Z,52.40
2018-08-16T10:13:00.681Z,52.70
2018-08-16T10:15:29.051Z,51.40
2018-08-16T10:17:57.422Z,52.50
2018-08-16T10:20:25.870Z,52.40
2018-08-16T10:22:54.204Z,51.30
2018-08-16T10:25:22.569Z,51.40
2018-08-16T10:27:50.990Z,51.50
2018-08-16T10:30:19.464Z,51.70
2018-08-16T10:32:47.877Z,51.60
2018-08-16T10:35:16.307Z,53.80
2018-08-16T10:37:44.798Z,53.10
2018-08-16T10:40:13.156Z,52.90
2018-08-16T10:42:41.789Z,52.40
2018-08-16T10:45:10.220Z,52.70
2018-08-16T10:47:38.658Z,53.20
2018-08-16T10:50:07.059Z,51.70
2018-08-16T10:52:35.422Z,53.10
2018-08-16T10:55:03.897Z,53.50
2018-08-16T10:57:32.475Z,52.40
2018-08-16T11:00:00.904Z,53.00
2018-08-16T11:02:29.249Z,52.70
2018-08-16T11:04:57.573Z,52.60
2018-08-16T11:07:26.010Z,52.50
2018-08-16T11:09:54.314Z,53.50
2018-08-16T11:12:22.675Z,54.30
2018-08-16T11:14:51.077Z,55.40
2018-08-16T11:17:19.525Z,56.50
2018-08-16T11:19:47.979Z,57.10
2018-08-16T11:22:16.390Z,56.50
2018-08-16T11:24:44.706Z,56.70
2018-08-16T11:27:13.093Z,56.70
2018-08-16T11:29:41.582Z,55.20
2018-08-16T11:32:10.005Z,56.00
2018-08-16T11:34:38.475Z,56.20
2018-08-16T11:37:06.878Z,55.70
2018-08-16T11:39:35.274Z,55.20
2018-08-16T11:42:04.371Z,55.10
2018-08-16T11:44:32.731Z,55.10
2018-08-16T11:47:01.046Z,55.20
2018-08-16T11:49:29.436Z,55.00
2018-08-16T11:51:57.916Z,55.00
2018-08-16T11:54:26.309Z,54.20
2018-08-16T11:56:54.691Z,53.70
2018-08-16T11:59:23.075Z,54.80
2018-08-16T12:01:51.470Z,54.90
2018-08-16T12:04:19.860Z,55.50
2018-08-16T12:06:48.241Z,53.40
2018-08-16T12:09:16.815Z,52.40
2018-08-16T12:11:45.181Z,52.70
2018-08-16T12:14:13.546Z,54.30
2018-08-16T12:16:41.940Z,54.20
2018-08-16T12:19:10.374Z,53.90
2018-08-16T12:21:38.774Z,52.20
2018-08-16T12:24:07.131Z,52.20
2018-08-16T12:26:35.551Z,52.20
2018-08-16T12:29:04.100Z,52.70
2018-08-16T12:31:32.392Z,52.30
2018-08-16T12:34:00.714Z,52.60
2018-08-16T12:36:29.112Z,52.90
2018-08-16T12:38:57.719Z,53.00
2018-08-16T12:41:26.117Z,54.30
2018-08-16T12:43:55.220Z,54.80
2018-08-16T12:46:23.649Z,53.00
2018-08-16T12:48:52.090Z,52.10
2018-08-16T12:51:21.056Z,51.50
2018-08-16T12:53:49.395Z,50.80
2018-08-16T12:56:17.821Z,51.70
2018-08-16T12:58:46.193Z,51.90
2018-08-16T13:01:14.576Z,52.80
2018-08-16T13:03:42.866Z,53.00
2018-08-16T13:06:11.294Z,52.50
2018-08-16T13:08:39.813Z,53.10
2018-08-16T13:11:08.397Z,53.30
2018-08-16T13:13:37.125Z,53.00
2018-08-16T13:16:05.745Z,53.10
2018-08-16T13:18:34.169Z,52.30
2018-08-16T13:21:02.595Z,51.80
2018-08-16T13:23:31.026Z,51.40
2018-08-16T13:25:59.358Z,49.90
2018-08-16T13:28:27.792Z,50.00
2018-08-16T13:30:56.176Z,49.90
2018-08-16T13:33:24.682Z,49.40
2018-08-16T13:35:53.053Z,50.00
2018-08-16T13:38:21.515Z,49.40
2018-08-16T13:40:49.951Z,48.80
2018-08-16T13:43:18.413Z,47.50
2018-08-16T13:45:46.824Z,45.50
2018-08-16T13:48:15.314Z,47.30
2018-08-16T13:50:47.881Z,46.90
2018-08-16T13:53:16.309Z,46.60
2018-08-16T13:55:44.711Z,48.80
2018-08-16T13:58:13.098Z,48.80
2018-08-16T14:00:42.177Z,49.10
2018-08-16T14:03:14.796Z,47.50
2018-08-16T14:05:43.255Z,48.00
2018-08-16T14:08:11.675Z,48.60
2018-08-16T14:10:40.048Z,49.80
2018-08-16T14:13:08.456Z,48.10
2018-08-16T14:15:37.026Z,48.30
2018-08-16T14:18:05.483Z,47.30
2018-08-16T14:20:33.937Z,46.00
2018-08-16T14:23:02.395Z,47.70
2018-08-16T14:25:30.795Z,49.10
2018-08-16T14:27:59.228Z,49.30
2018-08-16T14:30:27.542Z,49.60
2018-08-16T14:32:55.946Z,50.20
2018-08-16T14:35:24.400Z,49.40
2018-08-16T14:37:52.777Z,50.10
2018-08-16T14:40:21.146Z,50.00
2018-08-16T14:42:49.717Z,49.40
2018-08-16T14:45:18.095Z,49.40
2018-08-16T14:47:46.503Z,48.70
2018-08-16T14:50:14.898Z,49.40
2018-08-16T14:52:43.275Z,48.10
2018-08-16T14:55:11.950Z,47.90
2018-08-16T14:57:40.340Z,47.90
2018-08-16T15:00:09.698Z,47.80
2018-08-16T15:02:38.225Z,48.50
2018-08-16T15:05:07.513Z,48.20
2018-08-16T15:07:35.919Z,48.60
2018-08-16T15:10:05.177Z,48.30
2018-08-16T15:12:33.787Z,48.50
2018-08-16T15:15:02.286Z,48.80
2018-08-16T15:17:30.653Z,49.10
2018-08-16T15:19:59.137Z,49.60
2018-08-16T15:22:27.545Z,49.80
2018-08-16T15:24:55.967Z,49.60
2018-08-16T15:27:24.353Z,48.50
2018-08-16T15:29:52.690Z,48.10
2018-08-16T15:32:21.123Z,48.40
2018-08-16T15:34:49.418Z,48.70
2018-08-16T15:37:17.753Z,48.70
2018-08-16T15:39:46.151Z,48.50
2018-08-16T15:42:14.665Z,48.60
2018-08-16T15:44:43.054Z,49.40
2018-08-16T15:47:11.471Z,49.00
2018-08-16T15:49:39.985Z,49.00
2018-08-16T15:52:08.317Z,47.60
2018-08-16T15:54:36.760Z,48.00
2018-08-16T15:57:05.241Z,48.30
2018-08-16T15:59:33.666Z,48.30
2018-08-16T16:02:02.029Z,47.80
2018-08-16T16:04:30.421Z,47.70
2018-08-16T16:06:58.847Z,47.30
2018-08-16T16:09:27.222Z,47.60
2018-08-16T16:11:55.566Z,48.00
2018-08-16T16:14:23.972Z,48.60
2018-08-16T16:16:52.398Z,48.20
2018-08-16T16:19:20.810Z,48.30
2018-08-16T16:21:49.189Z,48.40
2018-08-16T16:24:17.632Z,49.10
2018-08-16T16:26:45.983Z,48.50
2018-08-16T16:29:14.333Z,48.30
2018-08-16T16:31:42.752Z,47.90
2018-08-16T16:34:11.135Z,48.60
2018-08-16T16:36:39.519Z,49.70
2018-08-16T16:39:10.397Z,49.50
2018-08-16T16:41:39.006Z,48.90
2018-08-16T16:44:07.486Z,48.70
2018-08-16T16:46:35.855Z,48.50
2018-08-16T16:49:04.632Z,48.60
2018-08-16T16:51:32.975Z,48.80
2018-08-16T16:54:01.383Z,47.20
2018-08-16T16:56:29.951Z,47.00
2018-08-16T16:58:58.387Z,46.60
2018-08-16T17:01:26.771Z,47.10
2018-08-16T17:03:55.174Z,47.40
2018-08-16T17:06:23.594Z,47.30
2018-08-16T17:08:51.970Z,46.80
2018-08-16T17:11:20.380Z,47.80
2018-08-16T17:13:48.814Z,48.70
2018-08-16T17:16:17.268Z,48.20
2018-08-16T17:18:45.651Z,48.30
2018-08-16T17:21:14.130Z,49.00
2018-08-16T17:23:42.638Z,49.20
2018-08-16T17:26:11.277Z,49.20
2018-08-16T17:28:39.626Z,49.30
2018-08-16T17:31:08.105Z,49.80
2018-08-16T17:33:36.482Z,49.00
2018-08-16T17:36:04.903Z,49.10
2018-08-16T17:38:33.285Z,49.50
2018-08-16T17:41:01.927Z,48.90
2018-08-16T17:43:30.393Z,48.70
2018-08-16T17:45:58.877Z,49.30
2018-08-16T17:48:27.277Z,49.00
2018-08-16T17:50:56.289Z,49.30
2018-08-16T17:53:24.689Z,49.40
2018-08-16T17:55:53.075Z,49.60
2018-08-16T17:58:21.486Z,49.50
2018-08-16T18:00:50.845Z,49.80
2018-08-16T18:03:19.228Z,50.00
2018-08-16T18:05:47.812Z,50.40
2018-08-16T18:08:16.159Z,50.30
2018-08-16T18:10:44.760Z,49.70
2018-08-16T18:13:13.188Z,49.80
2018-08-16T18:15:41.546Z,50.60
2018-08-16T18:18:10.400Z,51.40
2018-08-16T18:20:38.814Z,52.00
2018-08-16T18:23:07.233Z,52.50
2018-08-16T18:25:35.698Z,53.00
2018-08-16T18:28:04.218Z,53.30
2018-08-16T18:30:32.698Z,54.10
2018-08-16T18:33:01.095Z,54.50
2018-08-16T18:35:29.520Z,55.00
2018-08-16T18:37:57.920Z,55.60
2018-08-16T18:40:26.342Z,55.80
2018-08-16T18:42:55.000Z,56.20
2018-08-16T18:45:23.361Z,56.30
2018-08-16T18:47:51.969Z,56.80
2018-08-16T18:50:20.609Z,56.90
2018-08-16T18:52:49.013Z,57.10
2018-08-16T18:55:17.407Z,57.60
2018-08-16T18:57:45.880Z,58.00
2018-08-16T19:00:14.440Z,58.60
2018-08-16T19:02:43.167Z,58.60
2018-08-16T19:05:11.617Z,58.70
2018-08-16T19:07:40.088Z,58.90
2018-08-16T19:10:09.732Z,59.50
2018-08-16T19:12:38.320Z,59.80
2018-08-16T19:15:06.825Z,61.10
2018-08-16T19:17:35.243Z,61.80
2018-08-16T19:20:03.825Z,62.30
2018-08-16T19:22:32.535Z,62.50
2018-08-16T19:25:01.005Z,63.30
2018-08-16T19:27:29.397Z,63.50
2018-08-16T19:29:58.800Z,63.80
2018-08-16T19:32:27.291Z,64.40
2018-08-16T19:34:56.706Z,64.40
2018-08-16T19:37:25.158Z,65.00
2018-08-16T19:39:53.716Z,65.60
2018-08-16T19:42:22.133Z,66.10
2018-08-16T19:44:50.578Z,66.80
2018-08-16T19:47:19.102Z,67.60
2018-08-16T19:49:47.609Z,68.20
2018-08-16T19:52:16.515Z,68.50
2018-08-16T19:54:45.256Z,69.30
2018-08-16T19:57:13.770Z,69.70
2018-08-16T19:59:42.228Z,70.30
2018-08-16T20:02:10.722Z,71.10
2018-08-16T20:04:39.219Z,71.00
2018-08-16T20:07:08.007Z,71.40
2018-08-16T20:09:36.384Z,72.20
2018-08-16T20:12:04.838Z,73.30
2018-08-16T20:14:33.362Z,73.70
2018-08-16T20:17:01.955Z,74.60
2018-08-16T20:19:30.437Z,75.70
2018-08-16T20:21:58.786Z,77.20
2018-08-16T20:24:27.275Z,78.20
2018-08-16T20:26:55.763Z,79.90
2018-08-16T20:29:24.254Z,81.10
2018-08-16T20:31:52.684Z,83.10
2018-08-16T20:34:21.174Z,84.00
2018-08-16T20:36:49.624Z,85.50
2018-08-16T20:39:18.222Z,87.80
2018-08-16T20:41:46.873Z,89.20
2018-08-16T20:44:15.302Z,90.20
2018-08-16T20:46:43.894Z,90.60
2018-08-16T20:49:13.122Z,91.20
2018-08-16T20:51:41.549Z,91.70
2018-08-16T20:54:10.784Z,92.20
2018-08-16T20:56:39.465Z,92.50
2018-08-16T20:59:07.923Z,93.00
2018-08-16T21:01:36.450Z,93.40
2018-08-16T21:04:05.015Z,93.80
2018-08-16T21:06:33.619Z,94.20
2018-08-16T21:09:02.174Z,94.40
2018-08-16T21:11:30.701Z,94.90
2018-08-16T21:13:59.225Z,95.60
2018-08-16T21:16:27.765Z,96.00
2018-08-16T21:18:56.278Z,96.10
2018-08-16T21:21:24.848Z,96.30
2018-08-16T21:23:53.355Z,96.40
2018-08-16T21:26:22.171Z,96.70
2018-08-16T21:28:50.679Z,97.10
2018-08-16T21:31:19.159Z,97.40
2018-08-16T21:33:47.715Z,97.40
2018-08-16T21:36:16.241Z,97.70
2018-08-16T21:38:44.672Z,97.70
2018-08-16T21:41:13.167Z,97.80
2018-08-16T21:43:41.756Z,97.90
2018-08-16T21:46:10.163Z,98.20
2018-08-16T21:48:38.704Z,97.90
2018-08-16T21:51:07.171Z,98.00
2018-08-16T21:53:35.672Z,98.20
2018-08-16T21:56:04.159Z,98.40
2018-08-16T21:58:32.634Z,98.30
2018-08-16T22:01:04.755Z,98.50
2018-08-16T22:03:33.197Z,98.70
2018-08-16T22:06:04.194Z,99.00
2018-08-16T22:08:49.684Z,99.10
2018-08-16T22:11:18.165Z,99.30
2018-08-16T22:13:46.653Z,99.80
2018-08-16T22:16:15.121Z,99.90
2018-08-16T22:18:43.514Z,99.90
2018-08-16T22:21:12.070Z,99.90
2018-08-16T22:23:40.567Z,99.90
2018-08-16T22:26:09.101Z,99.90
2018-08-16T22:28:37.531Z,99.90
2018-08-16T22:31:06.113Z,99.90
2018-08-16T22:33:34.535Z,99.90
2018-08-16T22:36:02.919Z,99.90
2018-08-16T22:38:31.841Z,99.90
2018-08-16T22:41:00.223Z,99.90
2018-08-16T22:43:28.626Z,99.90
2018-08-16T22:45:56.988Z,99.90
2018-08-16T22:48:25.477Z,99.90
2018-08-16T22:50:54.006Z,99.90
2018-08-16T22:53:22.509Z,99.90
2018-08-16T22:55:50.952Z,99.90
2018-08-16T22:58:19.409Z,99.90
2018-08-16T23:00:47.829Z,99.90
2018-08-16T23:03:16.338Z,99.90
2018-08-16T23:05:44.735Z,99.90
2018-08-16T23:08:13.151Z,99.90
2018-08-16T23:10:41.570Z,99.90
2018-08-16T23:13:10.047Z,99.90
2018-08-16T23:15:38.450Z,99.90
2018-08-16T23:18:06.901Z,99.90
2018-08-16T23:20:35.389Z,99.90
2018-08-16T23:23:03.753Z,99.90
2018-08-16T23:25:32.217Z,99.90
2018-08-16T23:28:00.630Z,99.90
2018-08-16T23:30:29.092Z,99.90
2018-08-16T23:32:57.685Z,99.90
2018-08-16T23:35:26.086Z,99.90
2018-08-16T23:37:54.482Z,99.90
2018-08-16T23:40:23.047Z,99.90
2018-08-16T23:42:52.294Z,99.90
2018-08-16T23:45:20.673Z,99.90
2018-08-16T23:48:00.420Z,99.90
2018-08-16T23:50:28.842Z,99.90
2018-08-16T23:52:57.403Z,99.90
2018-08-16T23:55:25.853Z,99.90
2018-08-16T23:57:54.310Z,99.90
